createdAt,value
2022-08-08T00:00:52.967Z,16.70
2022-08-08T00:03:40.546Z,16.70
2022-08-08T00:06:46.789Z,16.60
2022-08-08T00:09:55.459Z,16.60
2022-08-08T00:14:15.438Z,16.60
2022-08-08T00:17:48.278Z,16.50
2022-08-08T00:20:42.753Z,16.50
2022-08-08T00:23:51.173Z,16.50
2022-08-08T00:27:01.760Z,16.40
2022-08-08T00:30:07.784Z,16.40
2022-08-08T00:33:24.231Z,16.40
2022-08-08T00:36:42.947Z,16.40
2022-08-08T00:41:06.674Z,16.30
2022-08-08T00:43:20.099Z,16.30
2022-08-08T00:46:57.685Z,16.30
2022-08-08T00:50:03.881Z,16.20
2022-08-08T00:53:23.294Z,16.30
2022-08-08T00:56:45.821Z,16.20
2022-08-08T00:59:51.155Z,16.20
2022-08-08T01:04:01.688Z,16.10
2022-08-08T01:06:28.888Z,16.10
2022-08-08T01:09:36.845Z,16.10
2022-08-08T01:12:53.528Z,16.10
2022-08-08T01:16:27.970Z,16.00
2022-08-08T01:20:02.987Z,16.10
2022-08-08T01:23:05.794Z,16.00
2022-08-08T01:26:49.105Z,16.00
2022-08-08T01:29:59.925Z,16.00
2022-08-08T01:33:23.935Z,16.00
2022-08-08T01:37:03.033Z,16.00
2022-08-08T01:40:02.655Z,16.00
2022-08-08T01:43:18.884Z,15.90
2022-08-08T01:46:38.828Z,15.90
2022-08-08T01:49:37.813Z,15.90
2022-08-08T01:52:55.338Z,15.90
2022-08-08T01:56:28.877Z,15.90
2022-08-08T01:59:24.907Z,15.80
2022-08-08T02:03:07.380Z,15.80
2022-08-08T02:06:45.925Z,15.80
2022-08-08T02:10:11.667Z,15.70
2022-08-08T02:13:11.023Z,15.70
2022-08-08T02:17:10.672Z,15.70
2022-08-08T02:21:01.738Z,15.70
2022-08-08T02:24:02.149Z,15.70
2022-08-08T02:27:13.615Z,15.70
2022-08-08T02:30:13.031Z,15.70
2022-08-08T02:33:41.615Z,15.60
2022-08-08T02:37:53.019Z,15.60
2022-08-08T02:41:01.391Z,15.60
2022-08-08T02:44:35.156Z,15.60
2022-08-08T02:47:37.902Z,15.50
2022-08-08T02:50:47.284Z,15.50
2022-08-08T02:54:08.283Z,15.50
2022-08-08T02:57:29.380Z,15.50
2022-08-08T03:00:50.887Z,15.50
2022-08-08T03:05:02.373Z,15.40
2022-08-08T03:08:19.030Z,15.40
2022-08-08T03:11:47.709Z,15.40
2022-08-08T03:16:04.028Z,15.40
2022-08-08T03:18:34.153Z,15.30
2022-08-08T03:21:40.631Z,15.30
2022-08-08T03:24:36.119Z,15.30
2022-08-08T03:27:42.100Z,15.30
2022-08-08T03:30:29.534Z,15.30
2022-08-08T03:33:55.431Z,15.20
2022-08-08T03:36:43.075Z,15.30
2022-08-08T03:39:51.623Z,15.20
2022-08-08T03:42:52.097Z,15.20
2022-08-08T03:46:05.398Z,15.20
2022-08-08T03:49:58.722Z,15.20
2022-08-08T03:52:23.256Z,15.10
2022-08-08T03:55:57.394Z,15.10
2022-08-08T03:58:34.655Z,15.10
2022-08-08T04:02:31.712Z,15.10
2022-08-08T04:04:52.785Z,15.10
2022-08-08T04:07:47.132Z,15.20
2022-08-08T04:10:45.097Z,15.10
2022-08-08T04:14:02.669Z,15.20
2022-08-08T04:16:49.242Z,15.20
2022-08-08T04:19:43.103Z,15.20
2022-08-08T04:22:37.119Z,15.20
2022-08-08T04:25:29.784Z,15.20
2022-08-08T04:28:37.019Z,15.20
2022-08-08T04:31:30.597Z,15.20
2022-08-08T04:34:49.409Z,15.20
2022-08-08T04:37:52.188Z,15.20
2022-08-08T04:40:40.306Z,15.20
2022-08-08T04:43:53.918Z,15.20
2022-08-08T04:46:52.396Z,15.20
2022-08-08T04:49:58.986Z,15.20
2022-08-08T04:53:14.267Z,15.20
2022-08-08T04:56:15.237Z,15.20
2022-08-08T04:59:02.390Z,15.20
2022-08-08T05:02:00.697Z,15.20
2022-08-08T05:04:54.237Z,15.30
2022-08-08T05:07:53.179Z,15.30
2022-08-08T05:10:50.201Z,15.30
2022-08-08T05:13:57.670Z,15.30
2022-08-08T05:17:00.990Z,15.30
2022-08-08T05:20:10.911Z,15.40
2022-08-08T05:23:02.218Z,15.40
2022-08-08T05:26:00.165Z,15.50
2022-08-08T05:28:57.595Z,15.50
2022-08-08T05:32:04.412Z,15.50
2022-08-08T05:35:04.430Z,15.60
2022-08-08T05:38:03.413Z,15.60
2022-08-08T05:41:00.236Z,15.70
2022-08-08T05:44:03.489Z,15.70
2022-08-08T05:47:03.046Z,15.70
2022-08-08T05:49:54.211Z,15.80
2022-08-08T05:52:50.275Z,15.80
2022-08-08T05:56:10.973Z,15.90
2022-08-08T05:59:12.460Z,15.90
2022-08-08T06:02:07.277Z,16.00
2022-08-08T06:04:58.591Z,16.00
2022-08-08T06:08:01.980Z,16.10
2022-08-08T06:10:50.292Z,16.10
2022-08-08T06:13:47.410Z,16.10
2022-08-08T06:16:42.105Z,16.20
2022-08-08T06:19:40.392Z,16.20
2022-08-08T06:22:35.640Z,16.30
2022-08-08T06:25:33.431Z,16.30
2022-08-08T06:28:58.393Z,16.40
2022-08-08T06:32:10.149Z,16.40
2022-08-08T06:36:00.551Z,16.40
2022-08-08T06:38:21.576Z,16.50
2022-08-08T06:41:24.364Z,16.60
2022-08-08T06:44:24.956Z,16.70
2022-08-08T06:47:22.294Z,16.70
2022-08-08T06:50:32.073Z,16.80
2022-08-08T06:53:39.290Z,16.90
2022-08-08T06:56:37.442Z,17.00
2022-08-08T06:59:24.696Z,17.00
2022-08-08T07:02:32.193Z,17.00
2022-08-08T07:05:30.555Z,17.10
2022-08-08T07:08:37.332Z,17.20
2022-08-08T07:11:50.776Z,17.20
2022-08-08T07:14:42.394Z,17.30
2022-08-08T07:18:01.430Z,17.40
2022-08-08T07:21:02.026Z,17.50
2022-08-08T07:24:02.830Z,17.60
2022-08-08T07:27:00.426Z,17.60
2022-08-08T07:30:00.975Z,17.70
2022-08-08T07:33:01.134Z,17.80
2022-08-08T07:35:54.529Z,17.90
2022-08-08T07:38:53.565Z,18.00
2022-08-08T07:42:04.198Z,18.10
2022-08-08T07:44:59.589Z,18.10
2022-08-08T07:47:56.456Z,18.20
2022-08-08T07:50:55.441Z,18.20
2022-08-08T07:54:03.706Z,18.40
2022-08-08T07:57:17.309Z,18.40
2022-08-08T08:00:17.104Z,18.50
2022-08-08T08:03:20.560Z,18.60
2022-08-08T08:06:19.512Z,18.70
2022-08-08T08:09:19.604Z,18.80
2022-08-08T08:12:10.126Z,18.90
2022-08-08T08:15:26.652Z,19.00
2022-08-08T08:18:32.250Z,19.20
2022-08-08T08:21:35.499Z,19.50
2022-08-08T08:24:35.360Z,19.90
2022-08-08T08:27:32.926Z,20.30
2022-08-08T08:30:27.608Z,20.50
2022-08-08T08:33:21.678Z,20.80
2022-08-08T08:36:19.011Z,20.90
2022-08-08T08:39:17.563Z,20.70
2022-08-08T08:42:19.446Z,20.40
2022-08-08T08:45:22.718Z,20.10
2022-08-08T08:48:19.496Z,19.80
2022-08-08T08:51:18.975Z,19.50
2022-08-08T08:54:14.712Z,19.30
2022-08-08T08:57:03.994Z,19.30
2022-08-08T09:00:17.021Z,19.60
2022-08-08T09:03:09.240Z,20.00
2022-08-08T09:06:26.198Z,20.20
2022-08-08T09:09:40.042Z,20.40
2022-08-08T09:12:42.630Z,21.00
2022-08-08T09:15:40.915Z,21.70
2022-08-08T09:18:37.682Z,22.20
2022-08-08T09:21:58.982Z,22.40
2022-08-08T09:24:42.798Z,22.30
2022-08-08T09:27:41.876Z,22.10
2022-08-08T09:30:56.630Z,21.70
2022-08-08T09:34:14.517Z,21.20
2022-08-08T09:37:39.463Z,20.80
2022-08-08T09:40:45.436Z,20.70
2022-08-08T09:44:05.432Z,20.90
2022-08-08T09:47:05.619Z,21.10
2022-08-08T09:50:19.722Z,21.20
2022-08-08T09:53:24.838Z,21.30
2022-08-08T09:56:25.264Z,21.40
2022-08-08T10:00:21.063Z,21.40
2022-08-08T10:02:51.682Z,21.50
2022-08-08T10:05:46.821Z,22.00
2022-08-08T10:08:44.763Z,22.30
2022-08-08T10:12:25.947Z,22.90
2022-08-08T10:15:02.934Z,23.10
2022-08-08T10:18:22.232Z,23.30
2022-08-08T10:21:26.000Z,23.30
2022-08-08T10:24:29.224Z,23.40
2022-08-08T10:27:27.110Z,23.50
2022-08-08T10:30:59.696Z,23.60
2022-08-08T10:34:18.053Z,23.40
2022-08-08T10:36:46.785Z,23.20
2022-08-08T10:39:54.520Z,23.10
2022-08-08T10:42:44.776Z,23.20
2022-08-08T10:45:58.973Z,23.50
2022-08-08T10:48:57.738Z,23.60
2022-08-08T10:51:52.792Z,23.60
2022-08-08T10:54:53.338Z,23.60
2022-08-08T10:57:53.350Z,23.70
2022-08-08T11:01:04.016Z,23.80
2022-08-08T11:04:02.655Z,24.10
2022-08-08T11:07:07.176Z,24.30
2022-08-08T11:09:56.201Z,24.60
2022-08-08T11:16:31.998Z,25.10
2022-08-08T11:19:29.875Z,25.50
2022-08-08T11:25:53.511Z,25.50
2022-08-08T11:28:51.789Z,25.60
2022-08-08T11:31:47.066Z,25.40
2022-08-08T11:35:07.371Z,25.50
2022-08-08T11:38:36.035Z,25.30
2022-08-08T11:41:07.819Z,25.10
2022-08-08T11:44:03.097Z,25.00
2022-08-08T11:46:57.784Z,25.00
2022-08-08T11:49:51.830Z,24.90
2022-08-08T11:52:48.241Z,24.70
2022-08-08T11:55:46.622Z,24.70
2022-08-08T11:58:41.900Z,24.90
2022-08-08T12:01:35.538Z,25.30
2022-08-08T12:04:29.864Z,25.50
2022-08-08T12:07:20.509Z,25.70
2022-08-08T12:10:19.871Z,26.00
2022-08-08T12:13:16.891Z,26.00
2022-08-08T12:16:18.903Z,25.70
2022-08-08T12:19:14.471Z,25.50
2022-08-08T12:22:21.081Z,25.50
2022-08-08T12:25:20.502Z,25.30
2022-08-08T12:28:25.904Z,25.20
2022-08-08T12:31:19.992Z,25.20
2022-08-08T12:34:13.917Z,25.20
2022-08-08T12:37:08.474Z,25.20
2022-08-08T12:40:03.946Z,25.40
2022-08-08T12:42:59.931Z,25.60
2022-08-08T12:46:02.741Z,25.70
2022-08-08T12:49:22.165Z,25.50
2022-08-08T12:52:14.351Z,25.60
2022-08-08T12:55:31.937Z,25.50
2022-08-08T12:58:59.011Z,25.50
2022-08-08T13:02:07.039Z,25.60
2022-08-08T13:04:57.755Z,25.50
2022-08-08T13:08:04.069Z,25.50
2022-08-08T13:11:00.952Z,25.50
2022-08-08T13:14:04.074Z,25.40
2022-08-08T13:16:59.410Z,25.50
2022-08-08T13:19:50.302Z,25.60
2022-08-08T13:26:14.723Z,25.40
2022-08-08T13:29:10.453Z,25.20
2022-08-08T13:32:10.741Z,25.20
2022-08-08T13:34:59.206Z,25.20
2022-08-08T13:38:06.391Z,25.20
2022-08-08T13:40:54.929Z,25.20
2022-08-08T13:44:03.987Z,25.30
2022-08-08T13:47:09.006Z,25.40
2022-08-08T13:50:36.846Z,25.50
2022-08-08T13:53:36.776Z,25.60
2022-08-08T13:56:41.570Z,25.50
2022-08-08T13:59:49.355Z,25.50
2022-08-08T14:02:37.383Z,25.70
2022-08-08T14:06:00.495Z,25.90
2022-08-08T14:08:48.756Z,25.90
2022-08-08T14:11:44.073Z,26.00
2022-08-08T14:14:40.175Z,26.20
2022-08-08T14:17:59.046Z,26.30
2022-08-08T14:20:57.396Z,26.40
2022-08-08T14:24:04.164Z,26.40
2022-08-08T14:27:07.775Z,26.50
2022-08-08T14:30:23.061Z,26.50
2022-08-08T14:33:36.374Z,26.60
2022-08-08T14:36:41.089Z,26.30
2022-08-08T14:40:05.261Z,26.20
2022-08-08T14:43:31.596Z,26.30
2022-08-08T14:46:34.174Z,26.20
2022-08-08T14:49:33.434Z,26.00
2022-08-08T14:52:27.177Z,26.00
2022-08-08T14:55:16.391Z,26.00
2022-08-08T14:58:20.118Z,26.00
2022-08-08T15:01:23.181Z,26.00
2022-08-08T15:04:18.161Z,26.10
2022-08-08T15:07:06.390Z,26.20
2022-08-08T15:10:21.138Z,26.10
2022-08-08T15:13:18.152Z,26.10
2022-08-08T15:16:12.095Z,26.10
2022-08-08T15:19:08.170Z,26.10
2022-08-08T15:21:55.602Z,26.20
2022-08-08T15:24:51.184Z,26.20
2022-08-08T15:28:03.277Z,26.30
2022-08-08T15:30:59.274Z,26.30
2022-08-08T15:33:58.542Z,26.40
2022-08-08T15:36:49.897Z,26.50
2022-08-08T15:39:45.236Z,26.50
2022-08-08T15:42:35.313Z,26.40
2022-08-08T15:45:33.379Z,26.30
2022-08-08T15:48:20.525Z,26.30
2022-08-08T15:51:18.234Z,26.50
2022-08-08T15:54:05.447Z,26.70
2022-08-08T15:56:59.269Z,26.90
2022-08-08T16:00:05.341Z,26.90
2022-08-08T16:03:00.240Z,26.50
2022-08-08T16:06:01.030Z,26.20
2022-08-08T16:09:02.282Z,25.90
2022-08-08T16:13:09.023Z,25.70
2022-08-08T16:15:17.473Z,25.50
2022-08-08T16:18:12.305Z,25.20
2022-08-08T16:21:25.717Z,25.50
2022-08-08T16:24:13.939Z,25.70
2022-08-08T16:27:09.553Z,25.80
2022-08-08T16:30:08.256Z,25.50
2022-08-08T16:33:07.276Z,25.30
2022-08-08T16:36:03.291Z,25.10
2022-08-08T16:38:59.283Z,24.80
2022-08-08T16:41:50.447Z,24.50
2022-08-08T16:44:47.420Z,24.40
2022-08-08T16:47:42.772Z,24.30
2022-08-08T16:50:36.326Z,24.10
2022-08-08T16:55:00.670Z,24.00
2022-08-08T16:56:37.323Z,23.80
2022-08-08T16:59:51.982Z,23.70
2022-08-08T17:02:46.406Z,23.60
2022-08-08T17:05:44.665Z,23.60
2022-08-08T17:08:39.351Z,23.60
2022-08-08T17:11:48.057Z,23.50
2022-08-08T17:14:36.933Z,23.40
2022-08-08T17:18:00.854Z,23.40
2022-08-08T17:20:39.889Z,23.40
2022-08-08T17:24:00.400Z,23.30
2022-08-08T17:26:47.333Z,23.30
2022-08-08T17:29:56.582Z,23.20
2022-08-08T17:34:35.253Z,23.10
2022-08-08T17:36:11.115Z,23.00
2022-08-08T17:39:04.955Z,23.00
2022-08-08T17:42:16.377Z,23.00
2022-08-08T17:45:06.373Z,23.00
2022-08-08T17:48:00.403Z,23.00
2022-08-08T17:50:48.989Z,23.00
2022-08-08T17:53:43.708Z,22.90
2022-08-08T17:56:38.383Z,22.90
2022-08-08T17:59:34.723Z,22.80
2022-08-08T18:02:39.423Z,22.70
2022-08-08T18:05:28.280Z,22.70
2022-08-08T18:08:43.646Z,22.60
2022-08-08T18:11:38.445Z,22.60
2022-08-08T18:14:37.741Z,22.50
2022-08-08T18:18:05.332Z,22.40
2022-08-08T18:20:54.600Z,22.40
2022-08-08T18:23:42.574Z,22.30
2022-08-08T18:26:46.672Z,22.20
2022-08-08T18:29:42.307Z,22.10
2022-08-08T18:32:36.456Z,22.10
2022-08-08T18:35:41.870Z,22.00
2022-08-08T18:38:42.437Z,21.90
2022-08-08T18:41:51.446Z,21.80
2022-08-08T18:44:55.256Z,21.80
2022-08-08T18:47:49.497Z,21.70
2022-08-08T18:50:39.544Z,21.60
2022-08-08T18:53:58.255Z,21.50
2022-08-08T18:56:56.483Z,21.40
2022-08-08T18:59:43.898Z,21.30
2022-08-08T19:02:48.439Z,21.30
2022-08-08T19:05:51.468Z,21.20
2022-08-08T19:08:46.505Z,21.10
2022-08-08T19:11:36.144Z,21.10
2022-08-08T19:14:30.497Z,21.00
2022-08-08T19:17:29.373Z,20.90
2022-08-08T19:20:31.552Z,20.80
2022-08-08T19:23:26.530Z,20.80
2022-08-08T19:26:30.355Z,20.70
2022-08-08T19:29:24.563Z,20.70
2022-08-08T19:32:19.581Z,20.70
2022-08-08T19:35:11.313Z,20.60
2022-08-08T19:38:07.573Z,20.50
2022-08-08T19:40:58.325Z,20.50
2022-08-08T19:44:00.858Z,20.50
2022-08-08T19:47:04.373Z,20.40
2022-08-08T19:50:02.635Z,20.40
2022-08-08T19:52:59.827Z,20.40
2022-08-08T19:55:53.611Z,20.30
2022-08-08T19:58:51.416Z,20.30
2022-08-08T20:02:01.894Z,20.30
2022-08-08T20:04:54.681Z,20.20
2022-08-08T20:08:29.112Z,20.20
2022-08-08T20:10:56.857Z,20.10
2022-08-08T20:14:32.284Z,20.10
2022-08-08T20:17:04.643Z,20.10
2022-08-08T20:19:52.034Z,20.10
2022-08-08T20:22:52.624Z,20.00
2022-08-08T20:25:50.658Z,20.00
2022-08-08T20:28:45.612Z,19.90
2022-08-08T20:32:02.875Z,19.90
2022-08-08T20:34:53.860Z,19.80
2022-08-08T20:37:54.872Z,19.80
2022-08-08T20:40:51.086Z,19.80
2022-08-08T20:43:43.332Z,19.70
2022-08-08T20:46:42.676Z,19.70
2022-08-08T20:49:40.138Z,19.60
2022-08-08T20:52:40.709Z,19.60
2022-08-08T20:55:42.310Z,19.50
2022-08-08T20:58:36.718Z,19.50
2022-08-08T21:01:27.983Z,19.50
2022-08-08T21:04:27.523Z,19.50
2022-08-08T21:07:47.069Z,19.50
2022-08-08T21:10:35.722Z,19.50
2022-08-08T21:13:39.909Z,19.40
2022-08-08T21:16:34.716Z,19.40
2022-08-08T21:19:44.572Z,19.40
2022-08-08T21:22:33.763Z,19.40
2022-08-08T21:25:27.734Z,19.30
2022-08-08T21:28:35.501Z,19.30
2022-08-08T21:31:57.784Z,19.30
2022-08-08T21:34:43.758Z,19.30
2022-08-08T21:37:54.814Z,19.20
2022-08-08T21:40:42.255Z,19.20
2022-08-08T21:43:50.772Z,19.20
2022-08-08T21:48:05.276Z,19.20
2022-08-08T21:50:01.790Z,19.20
2022-08-08T21:54:27.208Z,19.10
2022-08-08T21:56:19.911Z,19.10
2022-08-08T21:59:21.074Z,19.10
2022-08-08T22:02:19.198Z,19.00
2022-08-08T22:05:18.811Z,19.00
2022-08-08T22:08:06.200Z,19.00
2022-08-08T22:11:01.801Z,18.90
2022-08-08T22:13:56.795Z,18.90
2022-08-08T22:16:53.617Z,18.80
2022-08-08T22:20:12.656Z,18.80
2022-08-08T22:22:55.815Z,18.80
2022-08-08T22:26:27.337Z,18.80
2022-08-08T22:29:14.024Z,18.80
2022-08-08T22:32:04.162Z,18.70
2022-08-08T22:34:57.880Z,18.70
2022-08-08T22:37:54.768Z,18.70
2022-08-08T22:40:49.065Z,18.60
2022-08-08T22:44:01.935Z,18.60
2022-08-08T22:46:56.878Z,18.60
2022-08-08T22:49:53.844Z,18.50
2022-08-08T22:53:22.499Z,18.50
2022-08-08T22:56:01.648Z,18.50
2022-08-08T22:58:51.275Z,18.40
2022-08-08T23:02:02.731Z,18.40
2022-08-08T23:05:05.144Z,18.40
2022-08-08T23:07:57.493Z,18.40
2022-08-08T23:10:52.957Z,18.30
2022-08-08T23:13:53.521Z,18.30
2022-08-08T23:16:59.111Z,18.30
2022-08-08T23:19:48.849Z,18.20
2022-08-08T23:22:48.905Z,18.20
2022-08-08T23:25:37.214Z,18.20
2022-08-08T23:28:38.916Z,18.10
2022-08-08T23:31:36.780Z,18.10
2022-08-08T23:34:32.911Z,18.10
2022-08-08T23:38:02.331Z,18.10
2022-08-08T23:40:41.986Z,18.00
2022-08-08T23:43:31.845Z,18.00
2022-08-08T23:48:59.779Z,18.00
2022-08-08T23:49:55.944Z,18.00
2022-08-08T23:52:56.948Z,17.90
2022-08-08T23:55:50.959Z,17.90
2022-08-08T23:58:46.963Z,17.80
